createdAt,value
2022-10-15T00:02:06.694Z,13.42
2022-10-15T00:07:05.405Z,13.48
2022-10-15T00:12:04.357Z,13.45
2022-10-15T00:17:03.080Z,13.46
2022-10-15T00:27:05.903Z,13.41
2022-10-15T00:32:04.695Z,13.38
2022-10-15T00:37:03.505Z,13.49
2022-10-15T00:42:02.921Z,13.45
2022-10-15T00:47:18.989Z,13.40
2022-10-15T00:52:23.804Z,13.50
2022-10-15T00:57:24.971Z,13.31
2022-10-15T01:02:23.840Z,13.31
2022-10-15T01:07:22.843Z,13.38
2022-10-15T01:12:49.499Z,13.44
2022-10-15T01:18:26.811Z,13.40
2022-10-15T01:23:54.979Z,13.57
2022-10-15T01:28:59.781Z,13.45
2022-10-15T01:39:43.051Z,13.21
2022-10-15T01:44:52.537Z,13.19
2022-10-15T01:50:13.837Z,13.05
2022-10-15T01:55:15.503Z,13.07
2022-10-15T02:00:14.395Z,13.19
2022-10-15T02:05:24.329Z,13.15
2022-10-15T02:10:34.729Z,13.03
2022-10-15T02:15:45.927Z,13.09
2022-10-15T02:20:58.533Z,12.92
2022-10-15T02:32:54.218Z,13.03
2022-10-15T02:37:56.122Z,13.16
2022-10-15T02:42:56.273Z,13.09
2022-10-15T02:47:55.520Z,13.11
2022-10-15T02:52:56.093Z,13.02
2022-10-15T02:57:54.754Z,13.12
2022-10-15T03:02:53.822Z,13.10
2022-10-15T03:07:52.946Z,13.11
2022-10-15T03:12:51.997Z,13.03
2022-10-15T03:17:51.353Z,13.21
2022-10-15T03:22:50.198Z,13.01
2022-10-15T03:27:48.985Z,12.91
2022-10-15T03:32:56.360Z,13.00
2022-10-15T03:37:55.222Z,13.07
2022-10-15T03:42:56.491Z,13.12
2022-10-15T03:47:56.556Z,12.98
2022-10-15T03:52:58.309Z,13.01
2022-10-15T03:57:57.209Z,13.14
2022-10-15T04:02:56.138Z,13.07
2022-10-15T04:07:58.278Z,13.07
2022-10-15T04:12:58.771Z,13.11
2022-10-15T04:17:58.519Z,12.91
2022-10-15T04:22:59.826Z,13.49
2022-10-15T04:27:59.772Z,14.46
2022-10-15T04:32:58.676Z,14.55
2022-10-15T04:37:59.668Z,14.80
2022-10-15T04:43:01.890Z,14.57
2022-10-15T04:48:00.818Z,13.64
2022-10-15T04:52:59.663Z,13.23
2022-10-15T04:58:00.316Z,13.07
2022-10-15T05:03:02.904Z,12.90
2022-10-15T05:08:29.211Z,12.80
2022-10-15T05:13:48.557Z,12.82
2022-10-15T05:18:49.443Z,12.75
2022-10-15T05:23:50.263Z,12.85
2022-10-15T05:29:07.611Z,12.82
2022-10-15T05:34:08.339Z,12.72
2022-10-15T05:39:29.512Z,12.86
2022-10-15T05:44:28.599Z,12.77
2022-10-15T05:49:27.267Z,12.84
2022-10-15T05:54:36.332Z,12.92
2022-10-15T05:59:35.051Z,12.85
2022-10-15T06:04:35.713Z,12.95
2022-10-15T06:09:35.000Z,12.83
2022-10-15T06:14:33.709Z,12.90
2022-10-15T06:19:33.327Z,13.01
2022-10-15T06:24:32.038Z,13.11
2022-10-15T06:29:31.022Z,13.09
2022-10-15T06:34:33.434Z,13.22
2022-10-15T06:39:32.208Z,13.29
2022-10-15T06:44:30.863Z,13.43
2022-10-15T06:49:29.608Z,13.32
2022-10-15T06:54:28.373Z,13.48
2022-10-15T06:59:27.143Z,13.61
2022-10-15T07:04:27.498Z,13.64
2022-10-15T07:09:26.368Z,13.69
2022-10-15T07:14:25.080Z,13.86
2022-10-15T07:19:24.079Z,13.86
2022-10-15T07:24:22.771Z,13.94
2022-10-15T07:29:21.579Z,13.98
2022-10-15T07:34:20.542Z,14.01
2022-10-15T07:39:19.682Z,14.07
2022-10-15T07:44:18.429Z,14.40
2022-10-15T07:49:17.155Z,14.51
2022-10-15T07:54:17.112Z,14.56
2022-10-15T07:59:15.808Z,14.72
2022-10-15T08:04:14.446Z,14.77
2022-10-15T08:09:14.042Z,14.75
2022-10-15T08:14:12.899Z,14.89
2022-10-15T08:19:11.631Z,14.84
2022-10-15T08:24:10.523Z,14.79
2022-10-15T08:29:10.934Z,14.98
2022-10-15T08:34:09.815Z,15.14
2022-10-15T08:39:09.286Z,15.35
2022-10-15T08:44:20.323Z,15.33
2022-10-15T08:49:34.176Z,15.32
2022-10-15T08:54:35.553Z,15.41
2022-10-15T08:59:43.524Z,15.05
2022-10-15T09:04:53.627Z,15.14
2022-10-15T09:10:13.029Z,15.25
2022-10-15T09:15:23.968Z,15.26
2022-10-15T09:20:36.949Z,15.43
2022-10-15T09:25:36.977Z,15.73
2022-10-15T09:30:49.550Z,16.13
2022-10-15T09:36:06.829Z,16.11
2022-10-15T09:41:25.271Z,16.03
2022-10-15T09:46:23.945Z,16.46
2022-10-15T09:51:34.214Z,16.26
2022-10-15T09:56:39.674Z,16.29
2022-10-15T10:01:38.506Z,16.41
2022-10-15T10:06:52.328Z,16.42
2022-10-15T10:11:54.942Z,16.45
2022-10-15T10:17:20.502Z,16.68
2022-10-15T10:22:20.346Z,16.72
2022-10-15T10:27:27.967Z,16.70
2022-10-15T10:32:31.167Z,16.54
2022-10-15T10:37:42.551Z,16.65
2022-10-15T10:42:42.793Z,16.96
2022-10-15T10:47:44.173Z,16.95
2022-10-15T10:52:45.475Z,17.06
2022-10-15T10:57:50.760Z,17.18
2022-10-15T11:02:52.105Z,17.33
2022-10-15T11:08:12.644Z,17.25
2022-10-15T11:13:17.418Z,17.22
2022-10-15T11:18:48.075Z,17.16
2022-10-15T11:24:11.331Z,17.17
2022-10-15T11:29:28.804Z,17.21
2022-10-15T11:34:42.880Z,17.26
2022-10-15T11:39:55.163Z,17.17
2022-10-15T11:45:00.711Z,17.02
2022-10-15T11:50:33.205Z,17.14
2022-10-15T11:55:39.450Z,17.06
2022-10-15T12:00:53.932Z,17.23
2022-10-15T12:05:59.585Z,17.71
2022-10-15T12:11:25.058Z,18.23
2022-10-15T12:16:30.309Z,18.47
2022-10-15T12:21:44.250Z,18.38
2022-10-15T12:26:43.018Z,18.34
2022-10-15T12:31:44.394Z,19.04
2022-10-15T12:36:43.220Z,19.10
2022-10-15T12:41:45.432Z,18.72
2022-10-15T12:46:44.352Z,18.44
2022-10-15T12:51:43.322Z,18.13
2022-10-15T12:56:44.073Z,17.86
2022-10-15T13:01:42.701Z,17.99
2022-10-15T13:06:41.469Z,18.23
2022-10-15T13:16:55.908Z,18.38
2022-10-15T13:21:57.436Z,18.51
2022-10-15T13:27:00.753Z,18.58
2022-10-15T13:32:00.728Z,18.39
2022-10-15T13:37:01.837Z,18.38
2022-10-15T13:42:22.117Z,18.38
2022-10-15T13:47:48.452Z,18.38
2022-10-15T13:52:52.742Z,18.43
2022-10-15T13:57:57.183Z,18.43
2022-10-15T14:03:23.037Z,18.33
2022-10-15T14:08:50.046Z,18.01
2022-10-15T14:13:51.746Z,18.00
2022-10-15T14:18:57.351Z,18.07
2022-10-15T14:24:13.020Z,18.13
2022-10-15T14:29:39.076Z,18.13
2022-10-15T14:34:40.449Z,18.03
2022-10-15T14:39:39.384Z,17.86
2022-10-15T14:44:56.273Z,17.78
2022-10-15T14:49:59.988Z,17.69
2022-10-15T14:55:14.226Z,17.60
2022-10-15T15:00:35.909Z,17.46
2022-10-15T15:05:49.212Z,17.38
2022-10-15T15:15:53.650Z,17.20
2022-10-15T15:20:52.972Z,17.16
2022-10-15T15:25:52.510Z,17.06
2022-10-15T15:30:57.336Z,16.89
2022-10-15T15:36:00.892Z,16.79
2022-10-15T15:41:03.394Z,16.65
2022-10-15T15:46:02.156Z,16.51
2022-10-15T15:51:07.603Z,16.45
2022-10-15T15:56:06.724Z,16.31
2022-10-15T16:01:05.601Z,16.29
2022-10-15T16:06:06.684Z,16.12
2022-10-15T16:11:06.819Z,16.07
2022-10-15T16:16:05.815Z,15.95
2022-10-15T16:21:04.820Z,15.85
2022-10-15T16:26:03.468Z,15.84
2022-10-15T16:31:26.434Z,15.64
2022-10-15T16:36:28.571Z,15.54
2022-10-15T16:41:27.409Z,15.50
2022-10-15T16:46:26.173Z,15.44
2022-10-15T16:51:25.946Z,15.38
2022-10-15T16:56:29.447Z,15.28
2022-10-15T17:01:29.751Z,15.43
2022-10-15T17:06:30.942Z,15.44
2022-10-15T17:11:40.102Z,15.51
2022-10-15T17:16:40.395Z,15.45
2022-10-15T17:21:42.379Z,15.36
2022-10-15T17:26:42.975Z,15.27
2022-10-15T17:31:42.188Z,15.18
2022-10-15T17:36:45.598Z,15.17
2022-10-15T17:41:45.803Z,14.95
2022-10-15T17:46:44.692Z,14.96
2022-10-15T17:51:44.400Z,14.89
2022-10-15T17:56:43.122Z,14.86
2022-10-15T18:01:57.720Z,14.88
2022-10-15T18:06:57.942Z,14.74
2022-10-15T18:12:00.985Z,14.74
2022-10-15T18:17:02.332Z,14.67
2022-10-15T18:22:04.222Z,14.62
2022-10-15T18:27:02.915Z,14.46
2022-10-15T18:32:02.010Z,14.30
2022-10-15T18:37:01.656Z,14.37
2022-10-15T18:42:00.412Z,14.35
2022-10-15T18:46:59.209Z,14.39
2022-10-15T18:52:00.411Z,14.38
2022-10-15T18:57:05.677Z,14.33
2022-10-15T19:02:04.488Z,14.27
2022-10-15T19:07:05.129Z,14.24
2022-10-15T19:12:04.627Z,14.29
2022-10-15T19:17:03.508Z,14.26
2022-10-15T19:22:02.336Z,14.37
2022-10-15T19:27:01.040Z,14.34
2022-10-15T19:32:00.156Z,14.27
2022-10-15T19:36:58.888Z,14.24
2022-10-15T19:41:57.728Z,14.07
2022-10-15T19:46:56.614Z,13.99
2022-10-15T19:51:55.743Z,13.87
2022-10-15T19:56:54.410Z,13.91
2022-10-15T20:01:53.165Z,13.91
2022-10-15T20:06:52.937Z,13.90
2022-10-15T20:11:51.808Z,13.92
2022-10-15T20:16:50.705Z,13.97
2022-10-15T20:21:50.732Z,13.98
2022-10-15T20:26:50.564Z,14.06
2022-10-15T20:31:51.305Z,14.02
2022-10-15T20:36:53.629Z,14.02
2022-10-15T20:41:52.557Z,14.03
2022-10-15T20:47:02.621Z,14.16
2022-10-15T20:52:03.006Z,14.19
2022-10-15T20:57:02.378Z,14.04
2022-10-15T21:02:01.267Z,14.17
2022-10-15T21:07:00.099Z,14.30
2022-10-15T21:11:58.884Z,14.42
2022-10-15T21:16:57.839Z,14.34
2022-10-15T21:21:56.706Z,14.34
2022-10-15T21:26:56.366Z,14.32
2022-10-15T21:31:55.153Z,14.40
2022-10-15T21:36:55.317Z,14.33
2022-10-15T21:41:54.053Z,14.36
2022-10-15T21:46:52.782Z,14.41
2022-10-15T21:51:51.454Z,14.46
2022-10-15T21:56:50.182Z,14.54
2022-10-15T22:01:49.138Z,14.48
2022-10-15T22:06:48.270Z,14.49
2022-10-15T22:11:47.028Z,14.57
2022-10-15T22:16:45.835Z,14.57
2022-10-15T22:21:45.760Z,14.61
2022-10-15T22:26:47.812Z,14.57
2022-10-15T22:31:47.366Z,14.58
2022-10-15T22:36:46.591Z,14.68
2022-10-15T22:41:47.500Z,14.62
2022-10-15T22:46:49.343Z,14.67
2022-10-15T22:51:49.580Z,14.61
2022-10-15T22:56:49.538Z,14.65
2022-10-15T23:01:48.385Z,14.58
2022-10-15T23:06:47.119Z,14.51
2022-10-15T23:11:46.539Z,14.38
2022-10-15T23:16:47.281Z,14.29
2022-10-15T23:21:57.555Z,14.21
2022-10-15T23:26:56.299Z,14.19
2022-10-15T23:31:55.149Z,14.22
2022-10-15T23:36:53.952Z,14.19
2022-10-15T23:41:53.313Z,14.26
2022-10-15T23:46:52.325Z,14.17
2022-10-15T23:51:51.148Z,14.34
2022-10-15T23:56:49.838Z,14.36
